Airfield :
LOGIN :

Register | Disclaimer

   EN    FR    IT 

 










Legend :    VFR   Marginal VFR   IFR   Intensive IFR   Very Intensive IFR
Visi :
Ceiling :
>= 8 km
>= 3000ft
5 to 8 km
1000 to 3000 ft
1500m to 5 km
500 to 1000 ft
800 to 1500m
200 to 500 ft
< 800m
< 200 ft
Symbols :   Thunderstorms  Fog  Heavy snow  Heavy precipitations  Wind > 20 kt
SIGMETs :     Misc.  Thunderstorms  Icing  Turbulence  Mountain Waves  Volcanic Ashes







- Airport Elevation : 3 ft
- IATA code : LWR


EHLW - Leuuwarden Air Base

CURRENT METAR :
  • 130525Z AUTO 08006KT 040V120 9999 SCT015 OVC019 02/00 Q1024 WHT

EXPIRED METARs :
  • 130458Z AUTO 08006KT 030V130 9999 OVC019 03/00 Q1024 WHT
  • 130455Z AUTO 08005KT 050V130 9999 BKN018 OVC021 03/00 Q1024 WHT
  • 130425Z AUTO 09007KT 040V140 9999 OVC023 03/M00 Q1024 WHT
  • 130355Z AUTO 08008KT 030V110 9999 OVC024 03/M00 Q1024 WHT
  • 130348Z AUTO 08008KT 050V130 9999 OVC024 02/00 Q1024 WHT
  • 130334Z AUTO 07007KT 030V120 9999 BKN025 02/00 Q1024 BLU
  • 130325Z AUTO 07006KT 030V130 9999 BKN022 BKN025 02/00 Q1024 WHT
  • 130255Z AUTO 08004KT 020V130 9999 OVC020 02/00 Q1025 WHT

TAF TAF EHLW
Valid from the 12 at 18:00 until the 13 at 06:00 UTC


121800Z 1218/1306 07007KT 9999 SCT030
PROB40
TEMPO 1222/1306 SCT007 BKN010
No reported NOTAMs for that airfield.



MET'MAP, your aeronautical weather chart ! - Copyright ORBIFLY December 2007 - Disclaimer

ORBIFLY MET'MAP TEAM :

Programming & Development : Alexandra Zaïnal
Concept & Development : Baudouin d'Aumeries
Co-Development & Prog : Marc-Olivier Méhu
Technical & hardware support : Manuel Goepfert

Contact : metmap@orbifly.com




SOURCES & CREDITS :

   NOAA